Flight Track Log - Related Links

Times and Time Zones

All times are in EDT time to prevent confusion due to time zone crossing. See the N775NC flight status page for this flight to view local times or setup timezone preferences in your user account.

Time Position Orientation Groundspeed Altitude Reporting Facility
EDT Latitude Longitude Course Direction KTS MPH feet Rate Location/Type
Sun 07:58:41 PM 33.6167 -84.5000 244° Southwest 228 262 2,700  Level Atlanta TRACON
Sun 07:59:35 PM 33.5833 -84.5833 244° Southwest 271 312 4,900 2,500 Climbing Atlanta TRACON
Sun 08:00:41 PM 33.5667 -84.6667 257° West 286 329 7,700 2,160 Climbing Atlanta TRACON
Sun 08:01:40 PM 33.5625 -84.7592 267° West 299 344 9,400 1,664 Climbing Atlanta Center
Sun 08:02:40 PM 33.5661 -84.8689 272° West 333 383 11,000 1,500 Climbing Atlanta Center
Sun 08:03:40 PM 33.5797 -84.9914 278° West 338 389 12,400 1,650 Climbing Atlanta Center
Sun 08:04:40 PM 33.6039 -85.1089 284° West 352 405 14,300 1,900 Climbing Atlanta Center
Sun 08:05:40 PM 33.6172 -85.2311 277° West 358 412 16,200 1,750 Climbing Atlanta Center
Sun 08:06:40 PM 33.6119 -85.3533 267° West 363 418 17,800 1,450 Climbing Atlanta Center
Sun 08:07:40 PM 33.6189 -85.4806 274° West 375 432 19,100 1,300 Climbing Atlanta Center
Sun 08:08:40 PM 33.6319 -85.6081 277° West 384 442 20,400 1,300 Climbing Atlanta Center
Sun 08:09:40 PM 33.6489 -85.7408 279° West 391 450 21,700 1,150 Climbing Atlanta Center
Sun 08:10:40 PM 33.6847 -85.8661 289° West 396 456 22,700 800 Climbing Atlanta Center
Sun 08:11:40 PM 33.7244 -85.9994 290° West 405 466 23,300 650 Climbing Atlanta Center
Sun 08:12:40 PM 33.7681 -86.1403 290° West 433 498 24,000 750 Climbing Atlanta Center
Sun 08:13:40 PM 33.8114 -86.2814 290° West 450 518 24,800 750 Climbing Atlanta Center
Sun 08:14:40 PM 33.8278 -86.4144 278° West 450 518 25,500 800 Climbing Atlanta Center
Sun 08:15:40 PM 33.8475 -86.5675 279° West 456 525 26,400 950 Climbing Atlanta Center
Sun 08:16:40 PM 33.8675 -86.7133 279° West 456 525 27,400 750 Climbing Atlanta Center
Sun 08:17:40 PM 33.8892 -86.8642 280° West 456 525 27,900 300 Climbing Atlanta Center
Sun 08:18:40 PM 33.9064 -87.0172 278° West 461 531 28,000 41 Climbing Atlanta Center
Sun 08:20:06 PM 33.9481 -87.2547 282° West 459 528 28,000  Level Memphis Center
Sun 08:21:06 PM 33.9706 -87.4092 280° West 459 528 28,000  Level Memphis Center
Sun 08:22:06 PM 33.9931 -87.5589 280° West 459 528 28,000  Level Memphis Center
Sun 08:23:06 PM 34.0192 -87.7058 282° West 458 527 28,000  Level Memphis Center
Sun 08:24:06 PM 34.0411 -87.8581 280° West 458 527 28,000  Level Memphis Center
Sun 08:25:06 PM 34.0583 -87.9903 279° West 458 527 28,000  Level Memphis Center
Sun 08:26:06 PM 34.0819 -88.1378 281° West 452 520 28,000  Level Memphis Center
Sun 08:27:06 PM 34.1094 -88.2925 282° West 458 527 28,000  Level Memphis Center
Sun 08:28:06 PM 34.1578 -88.4344 292° West 464 534 28,000  Level Memphis Center
Sun 08:29:06 PM 34.1975 -88.5842 288° West 469 540 28,000  Level Memphis Center
Sun 08:30:06 PM 34.2225 -88.7369 281° West 469 540 28,000 -50 Level Memphis Center
Sun 08:31:06 PM 34.2433 -88.8972 279° West 458 527 27,900  Descending Memphis Center
Sun 08:32:06 PM 34.2658 -89.0478 280° West 453 521 28,000 -300 Climbing Memphis Center
Sun 08:33:06 PM 34.2842 -89.2033 278° West 461 531 27,300 -800 Descending Memphis Center
Sun 08:34:06 PM 34.3022 -89.3514 278° West 461 531 26,400 -700 Descending Memphis Center
Sun 08:35:06 PM 34.3261 -89.5019 281° West 461 531 25,900 -200 Descending Memphis Center
Sun 08:36:06 PM 34.3544 -89.6528 283° West 466 536 26,000 50 Climbing Memphis Center
Sun 08:37:06 PM 34.3822 -89.8036 283° West 466 536 26,000 -150 Level Memphis Center
Sun 08:38:06 PM 34.4036 -89.9417 281° West 471 542 25,700 -600 Descending Memphis Center
Sun 08:39:06 PM 34.4250 -90.0978 279° West 471 542 24,800 -750 Descending Memphis Center
Sun 08:40:06 PM 34.4522 -90.2489 282° West 464 534 24,200 -400 Descending Memphis Center
Sun 08:41:06 PM 34.4733 -90.3975 280° West 459 528 24,000 -100 Descending Memphis Center
Sun 08:42:06 PM 34.5003 -90.5561 282° West 451 519 24,000 -200 Level Memphis Center
Sun 08:43:06 PM 34.5250 -90.7000 282° West 440 506 23,600 -800 Descending Memphis Center
Sun 08:44:06 PM 34.5392 -90.8464 277° West 440 506 22,400 -1,250 Descending Memphis Center
Sun 08:45:06 PM 34.5572 -90.9953 278° West 446 513 21,100 -1,100 Descending Memphis Center
Sun 08:46:06 PM 34.5814 -91.1292 282° West 428 493 20,200 -1,950 Descending Memphis Center
Sun 08:47:06 PM 34.6181 -91.2531 290° West 403 464 17,200 -3,080 Descending Memphis Center
Sun 08:47:59 PM 34.6550 -91.3569 293° West 390 449 14,400 -2,842 Descending Memphis Center
Sun 08:49:00 PM 34.6769 -91.4858 282° West 374 430 11,800 -1,748 Descending Memphis Center
Sun 08:50:06 PM 34.7031 -91.5950 286° West 355 409 10,700 -1,096 Descending Memphis Center
Sun 08:50:55 PM 34.7186 -91.6861 282° West 276 318 9,700 -1,651 Descending Memphis Center
Sun 08:51:55 PM 34.7156 -91.7794 268° West 277 319 7,700 -1,722 Descending Memphis Center
Sun 08:52:50 PM 34.7103 -91.8628 266° West 277 319 6,400 -879 Descending Memphis Center
Sun 08:53:51 PM 34.6967 -91.9561 260° West 269 310 6,000 -645 Descending Memphis Center
Sun 08:54:51 PM 34.6872 -92.0467 263° West 260 299 5,100 -1,240 Descending Memphis Center
Sun 08:55:52 PM 34.6819 -92.1300 266° West 262 302 3,500 -1,574 Descending Memphis Center
Sun 08:56:53 PM 34.6619 -92.2103 253° West 247 284 1,900 -1,091 Descending Memphis Center
Sun 08:57:53 PM 34.6756 -92.2664 286° West 156 180 1,300 -645 Descending Memphis Center
Sun 08:58:54 PM 34.7114 -92.2544 15° North 142 163 600 -689 Descending Memphis Center

Login

Don't have an account? Register now (free) for customized features, flight alerts, and more!